createdAt,value
2022-10-01T00:05:18.329Z,18.51
2022-10-01T00:11:53.317Z,18.49
2022-10-01T00:18:18.127Z,18.47
2022-10-01T00:24:42.542Z,18.45
2022-10-01T00:31:07.337Z,18.43
2022-10-01T00:37:33.865Z,18.41
2022-10-01T00:51:14.069Z,18.36
2022-10-01T00:57:41.465Z,18.35
2022-10-01T01:04:11.917Z,18.33
2022-10-01T01:10:36.565Z,18.31
2022-10-01T01:17:37.096Z,18.30
2022-10-01T01:24:37.156Z,18.30
2022-10-01T01:31:08.793Z,18.30
2022-10-01T01:37:34.409Z,18.31
2022-10-01T01:57:53.047Z,18.31
2022-10-01T02:04:18.588Z,18.28
2022-10-01T02:11:00.877Z,18.24
2022-10-01T02:17:31.182Z,18.19
2022-10-01T02:23:55.476Z,18.15
2022-10-01T02:30:19.993Z,18.13
2022-10-01T02:36:44.375Z,18.10
2022-10-01T02:43:08.746Z,18.10
2022-10-01T02:49:34.302Z,18.08
2022-10-01T02:56:08.518Z,18.07
2022-10-01T03:02:34.447Z,18.07
2022-10-01T03:09:04.623Z,18.07
2022-10-01T03:15:30.025Z,18.06
2022-10-01T03:22:00.192Z,18.03
2022-10-01T03:28:49.150Z,18.02
2022-10-01T03:35:42.484Z,18.03
2022-10-01T03:42:14.048Z,18.02
2022-10-01T03:55:30.114Z,18.02
2022-10-01T04:01:54.620Z,18.01
2022-10-01T04:08:24.370Z,18.01
2022-10-01T04:14:58.205Z,18.00
2022-10-01T04:21:23.061Z,17.98
2022-10-01T04:27:47.647Z,17.95
2022-10-01T04:34:16.795Z,17.94
2022-10-01T04:40:41.272Z,17.99
2022-10-01T04:47:05.830Z,18.17
2022-10-01T04:53:30.488Z,18.41
2022-10-01T04:59:56.949Z,18.66
2022-10-01T05:06:21.559Z,18.90
2022-10-01T05:12:46.161Z,19.11
2022-10-01T05:19:10.837Z,19.29
2022-10-01T05:25:35.352Z,19.46
2022-10-01T05:32:08.642Z,19.61
2022-10-01T05:38:39.401Z,19.79
2022-10-01T05:45:04.061Z,19.98
2022-10-01T05:51:28.441Z,20.13
2022-10-01T05:57:55.369Z,20.28
2022-10-01T06:03:59.277Z,20.43
2022-10-01T06:10:23.772Z,20.53
2022-10-01T06:16:48.110Z,20.62
2022-10-01T06:23:12.656Z,20.71
2022-10-01T06:29:36.922Z,20.76
2022-10-01T06:36:01.205Z,20.81
2022-10-01T06:42:25.497Z,20.84
2022-10-01T06:48:49.834Z,20.84
2022-10-01T06:55:16.698Z,20.80
2022-10-01T07:01:34.733Z,20.71
2022-10-01T07:07:59.213Z,20.62
2022-10-01T07:14:23.542Z,20.54
2022-10-01T07:20:41.956Z,20.47
2022-10-01T07:27:07.496Z,20.41
2022-10-01T07:33:32.008Z,20.37
2022-10-01T07:39:56.370Z,20.31
2022-10-01T07:46:20.925Z,20.27
2022-10-01T07:52:45.685Z,20.23
2022-10-01T07:59:09.987Z,20.20
2022-10-01T08:05:42.828Z,20.15
2022-10-01T08:12:07.326Z,20.11
2022-10-01T08:18:31.549Z,20.07
2022-10-01T08:24:56.348Z,20.02
2022-10-01T08:31:20.697Z,19.96
2022-10-01T08:37:45.089Z,19.91
2022-10-01T08:44:07.872Z,19.87
2022-10-01T08:50:32.441Z,19.82
2022-10-01T08:56:59.561Z,19.83
2022-10-01T09:03:24.068Z,19.97
2022-10-01T09:09:48.361Z,20.18
2022-10-01T09:16:19.232Z,20.41
2022-10-01T09:22:59.772Z,20.60
2022-10-01T09:29:27.200Z,20.77
2022-10-01T09:35:52.058Z,20.89
2022-10-01T09:42:16.341Z,21.01
2022-10-01T09:48:40.771Z,21.11
2022-10-01T09:55:03.447Z,21.20
2022-10-01T10:01:27.790Z,21.28
2022-10-01T10:07:55.014Z,21.35
2022-10-01T10:14:21.818Z,21.39
2022-10-01T10:20:48.842Z,21.39
2022-10-01T10:27:01.361Z,21.44
2022-10-01T10:33:28.807Z,21.52
2022-10-01T10:39:56.760Z,21.56
2022-10-01T10:46:20.097Z,21.58
2022-10-01T10:52:45.816Z,21.55
2022-10-01T10:59:10.172Z,21.50
2022-10-01T11:05:43.556Z,21.42
2022-10-01T11:12:13.818Z,21.35
2022-10-01T11:18:38.102Z,21.30
2022-10-01T11:25:08.372Z,21.26
2022-10-01T11:31:51.179Z,21.22
2022-10-01T11:38:27.855Z,21.14
2022-10-01T11:44:59.851Z,21.09
2022-10-01T11:51:25.146Z,21.06
2022-10-01T11:57:48.017Z,21.01
2022-10-01T12:04:15.501Z,21.01
2022-10-01T12:10:34.352Z,21.05
2022-10-01T12:17:01.798Z,21.08
2022-10-01T12:23:26.132Z,21.19
2022-10-01T12:29:53.365Z,21.18
2022-10-01T12:36:23.508Z,21.08
2022-10-01T12:42:59.872Z,21.49
2022-10-01T12:49:41.114Z,22.49
2022-10-01T12:56:11.149Z,22.93
2022-10-01T13:02:53.394Z,22.48
2022-10-01T13:09:15.884Z,22.04
2022-10-01T13:15:41.847Z,21.71
2022-10-01T13:22:07.552Z,21.42
2022-10-01T13:28:56.238Z,21.16
2022-10-01T13:35:35.891Z,20.96
2022-10-01T13:42:12.290Z,20.81
2022-10-01T13:48:45.317Z,20.75
2022-10-01T13:55:09.829Z,20.66
2022-10-01T14:01:34.209Z,20.56
2022-10-01T14:08:17.200Z,20.45
2022-10-01T14:14:48.672Z,20.34
2022-10-01T14:21:18.813Z,20.24
2022-10-01T14:27:54.986Z,20.15
2022-10-01T14:34:23.711Z,20.08
2022-10-01T14:40:47.904Z,20.03
2022-10-01T14:47:12.222Z,19.99
2022-10-01T14:53:36.543Z,20.06
2022-10-01T15:00:00.758Z,20.20
2022-10-01T15:06:24.897Z,20.41
2022-10-01T15:12:49.112Z,20.61
2022-10-01T15:19:12.435Z,20.77
2022-10-01T15:25:36.666Z,20.90
2022-10-01T15:32:00.833Z,21.03
2022-10-01T15:38:25.023Z,21.13
2022-10-01T15:44:49.218Z,21.18
2022-10-01T15:51:15.357Z,21.19
2022-10-01T15:57:39.489Z,21.16
2022-10-01T16:04:12.994Z,21.11
2022-10-01T16:10:37.080Z,21.06
2022-10-01T16:17:06.922Z,21.02
2022-10-01T16:23:31.023Z,20.95
2022-10-01T16:29:53.824Z,20.90
2022-10-01T16:36:20.882Z,20.87
2022-10-01T16:42:45.037Z,20.83
2022-10-01T16:49:15.093Z,20.80
2022-10-01T16:56:27.055Z,20.82
2022-10-01T17:02:51.711Z,20.76
2022-10-01T17:09:15.916Z,20.73
2022-10-01T17:15:34.361Z,20.70
2022-10-01T17:21:41.679Z,20.67
2022-10-01T17:28:05.893Z,20.63
2022-10-01T17:34:30.143Z,20.59
2022-10-01T17:40:34.538Z,20.53
2022-10-01T17:46:58.647Z,20.47
2022-10-01T17:53:22.742Z,20.42
2022-10-01T17:59:47.069Z,20.37
2022-10-01T18:06:11.533Z,20.33
2022-10-01T18:12:35.649Z,20.30
2022-10-01T18:25:43.925Z,20.28
2022-10-01T18:32:08.227Z,20.26
2022-10-01T18:38:56.536Z,20.24
2022-10-01T18:45:22.173Z,20.22
2022-10-01T18:52:07.494Z,20.20
2022-10-01T18:58:36.215Z,20.18
2022-10-01T19:05:12.663Z,20.16
2022-10-01T19:11:51.956Z,20.13
2022-10-01T19:18:22.138Z,20.11
2022-10-01T19:25:01.384Z,20.09
2022-10-01T19:31:25.765Z,20.07
2022-10-01T19:37:53.082Z,20.04
2022-10-01T19:44:35.301Z,20.03
2022-10-01T19:50:59.597Z,20.00
2022-10-01T19:57:23.824Z,19.98
2022-10-01T20:03:52.330Z,19.96
2022-10-01T20:10:29.041Z,19.94
2022-10-01T20:17:05.310Z,19.92
2022-10-01T20:23:35.394Z,19.90
2022-10-01T20:30:13.604Z,19.88
2022-10-01T20:36:16.133Z,19.87
2022-10-01T20:42:40.302Z,19.84
2022-10-01T20:49:13.329Z,19.81
2022-10-01T20:55:37.613Z,19.79
2022-10-01T21:02:04.849Z,19.78
2022-10-01T21:08:37.940Z,19.77
2022-10-01T21:15:08.103Z,19.75
2022-10-01T21:21:50.535Z,19.74
2022-10-01T21:28:29.611Z,19.72
2022-10-01T21:34:44.053Z,19.68
2022-10-01T21:41:18.047Z,19.65
2022-10-01T21:47:50.368Z,19.63
2022-10-01T21:54:42.105Z,19.62
2022-10-01T22:01:10.483Z,19.62
2022-10-01T22:07:40.562Z,19.60
2022-10-01T22:14:04.845Z,19.59
2022-10-01T22:20:36.986Z,19.59
2022-10-01T22:27:01.188Z,19.57
2022-10-01T22:33:25.483Z,19.54
2022-10-01T22:40:02.652Z,19.51
2022-10-01T22:46:38.884Z,19.47
2022-10-01T22:53:09.378Z,19.41
2022-10-01T22:59:50.916Z,19.38
2022-10-01T23:06:24.252Z,19.33
2022-10-01T23:12:48.992Z,19.29
2022-10-01T23:19:14.789Z,19.26
2022-10-01T23:25:59.390Z,19.23
2022-10-01T23:32:29.510Z,19.21
2022-10-01T23:38:56.976Z,19.18
2022-10-01T23:45:23.348Z,19.16
2022-10-01T23:52:04.031Z,19.12
